• Join FlightAware (Why Join?)
  • Login
  • US Flag 
04:25AM EDT


 

Airport Tracker/Info


-or-


 

Live Flight TrackerFlight Track Log ✈ CHQ6056 ✈ 19-Apr-2013 ✈ KIAD - KLGA

Flight Track Log - Related Links

Times and Time Zones

All times are in EDT time to prevent confusion due to time zone crossing. See the CHQ6056 flight status page for this flight to view local times or setup timezone preferences in your user account.

Time Position Orientation Groundspeed Altitude Reporting Facility
EDT Latitude Longitude Course Direction KTS MPH feet Rate Location/Type
09:15PM 38.9500 -77.5000 322° Northwest 162 186 1,900  Level Potomac TRACON
09:16PM 39.0000 -77.5500 322° Northwest 221 254 3,500 1,680 Climbing Potomac TRACON
09:17PM 39.1014 -77.5736 350° North 278 320 6,300 2,040 Climbing Washington Center
09:18PM 39.1956 -77.5494 11° North 289 333 8,900 2,280 Climbing Washington Center
09:19PM 39.2856 -77.5303 North 312 359 10,900 1,980 Climbing Washington Center
09:20PM 39.3839 -77.5089 10° North 330 380 12,900 1,680 Climbing Washington Center
09:22PM 39.5517 -77.4758 North 367 422 15,400 1,680 Climbing New York Center
09:23PM 39.6636 -77.4514 10° North 399 459 17,500 2,400 Climbing New York Center
09:24PM 39.7811 -77.4383 North 413 475 20,300 1,740 Climbing New York Center
09:25PM 39.8950 -77.4167 North 413 475 21,000 900 Climbing New York Center
09:26PM 40.0233 -77.3964 North 428 493 22,100 1,500 Climbing New York Center
09:27PM 40.1469 -77.3836 North 440 506 24,100 1,920 Climbing New York Center
09:28PM 40.2639 -77.3811 North 439 505 26,000 1,560 Climbing New York Center
09:29PM 40.3789 -77.3783 North 422 486 27,300 1,140 Climbing New York Center
09:30PM 40.4933 -77.3431 13° North 417 480 28,300 960 Climbing New York Center
09:31PM 40.5797 -77.2528 38° Northeast 408 470 29,300 960 Climbing New York Center
09:32PM 40.6864 -77.1697 31° Northeast 428 493 30,300 840 Climbing New York Center
09:33PM 40.7781 -77.0522 44° Northeast 440 506 31,000 300 Climbing New York Center
09:34PM 40.8656 -76.9342 46° Northeast 447 514 31,000  Level New York Center
09:35PM 40.9547 -76.8214 44° Northeast 447 514 31,000  Level New York Center
09:36PM 41.0031 -76.6908 64° Northeast 430 495 31,000  Level New York Center
09:37PM 41.0006 -76.5697 92° East 343 395 31,000 -900 Level New York Center
09:38PM 41.0403 -76.4381 68° East 351 404 29,300 -1,860 Descending New York Center
09:39PM 41.1400 -76.3556 32° Northeast 378 435 27,300 -1,800 Descending New York Center
09:40PM 41.2292 -76.4097 335° Northwest 315 362 25,700 -1,620 Descending New York Center
09:41PM 41.2125 -76.4967 256° West 156 180 24,200 -1,560 Descending New York Center
09:42PM 41.2411 -76.5931 292° West 210 242 22,600 -1,140 Descending New York Center
09:43PM 41.2761 -76.6844 297° West 255 293 22,000 -360 Descending New York Center
09:44PM 41.3133 -76.7733 299° West 274 315 22,000  Level New York Center
09:45PM 41.3258 -76.8544 282° West 269 310 22,000  Level New York Center
09:46PM 41.2697 -76.8522 178° South 133 153 22,000  Level New York Center
09:47PM 41.2111 -76.8608 186° South 164 189 22,000  Level New York Center
09:48PM 41.1597 -76.8836 198° South 191 220 22,000  Level New York Center
09:49PM 41.1100 -76.9233 211° Southwest 197 227 22,000  Level New York Center
09:50PM 41.0556 -76.9267 183° South 202 232 22,000  Level New York Center
09:51PM 41.0344 -76.8119 104° East 185 213 22,000  Level New York Center
09:52PM 41.0239 -76.6897 96° East 256 295 22,000  Level New York Center
09:53PM 41.0422 -76.5703 78° East 306 352 22,000  Level New York Center
09:54PM 41.1314 -76.5781 356° North 240 276 22,000  Level New York Center
09:55PM 41.1539 -76.6708 288° West 157 181 22,000  Level New York Center
09:56PM 41.1661 -76.7603 280° West 206 237 22,000  Level New York Center
09:57PM 41.1719 -76.8489 275° West 226 260 22,000  Level New York Center
09:58PM 41.1381 -76.9036 231° Southwest 204 235 22,000  Level New York Center
09:59PM 41.0797 -76.9039 180° South 170 196 22,000  Level New York Center
10:00PM 41.0408 -76.8069 118° Southeast 182 209 22,000  Level New York Center
10:01PM 41.0239 -76.6872 101° East 258 297 22,000  Level New York Center
10:02PM 41.0425 -76.5650 79° East 299 344 22,000  Level New York Center
10:03PM 41.1314 -76.5781 354° North 222 255 22,000  Level New York Center
10:04PM 41.1542 -76.6656 289° West 155 178 22,000  Level New York Center
10:05PM 41.1664 -76.7547 280° West 199 229 22,000  Level New York Center
10:06PM 41.1747 -76.8381 278° West 218 251 22,000  Level New York Center
10:07PM 41.1508 -76.8994 243° Southwest 199 229 22,000  Level New York Center
10:08PM 41.0997 -76.9169 194° South 180 207 22,000  Level New York Center
10:09PM 41.0467 -76.8542 138° Southeast 172 198 22,000  Level New York Center
10:10PM 41.0303 -76.7261 100° East 236 272 22,000  Level New York Center
10:11PM 41.0219 -76.6017 95° East 282 325 22,000  Level New York Center
10:12PM 41.1058 -76.5456 27° Northeast 274 315 22,000  Level New York Center
10:13PM 41.1500 -76.6264 306° West 161 185 22,000  Level New York Center
10:14PM 41.1603 -76.7128 279° West 176 203 22,000  Level New York Center
10:15PM 41.1708 -76.7908 280° West 199 229 22,000  Level New York Center
10:16PM 41.1669 -76.8678 266° West 210 242 22,000  Level New York Center
10:17PM 41.1272 -76.9111 219° Southwest 197 227 22,000  Level New York Center
10:18PM 41.0697 -76.8947 168° South 173 199 22,000  Level New York Center
10:19PM 41.0375 -76.7900 112° Southeast 197 227 22,000  Level New York Center
10:20PM 41.0208 -76.6647 100° East 272 313 22,000  Level New York Center
10:21PM 41.0581 -76.5469 67° East 307 353 22,000  Level New York Center
10:22PM 41.1419 -76.5789 344° North 217 250 22,000  Level New York Center
10:23PM 41.1583 -76.6658 284° West 157 181 22,000  Level New York Center
10:24PM 41.1689 -76.7467 280° West 188 216 22,000 -420 Level New York Center
10:25PM 41.1275 -76.7844 215° Southwest 164 189 21,200 -1,200 Descending New York Center
10:26PM 41.0839 -76.6978 124° Southeast 135 155 19,700 -1,620 Descending New York Center
10:27PM 41.0483 -76.5736 111° Southeast 246 283 18,000 -1,620 Descending New York Center
10:28PM 41.0142 -76.4636 112° Southeast 300 345 16,500 -1,500 Descending New York Center
10:29PM 40.9875 -76.3678 110° East 314 361 15,100 -780 Descending New York Center
10:30PM 40.9511 -76.2547 113° Southeast 309 356 15,000 -60 Descending New York Center
10:31PM 40.9186 -76.1450 111° Southeast 309 356 15,000 -240 Level New York Center
10:32PM 40.8897 -76.0467 111° Southeast 314 361 14,600 -840 Descending New York Center
10:33PM 40.8569 -75.9344 111° Southeast 327 376 13,400 -840 Descending New York Center
10:34PM 40.8186 -75.8136 113° Southeast 327 376 13,000 -240 Descending New York Center
10:35PM 40.7897 -75.7047 109° East 322 371 13,000  Level New York Center
10:36PM 40.7611 -75.5903 108° East 322 371 13,000  Level New York Center
10:37PM 40.7325 -75.4731 108° East 322 371 13,000  Level New York Center
10:38PM 40.7097 -75.3647 105° East 331 381 13,000  Level New York Center
10:39PM 40.6869 -75.2511 105° East 325 374 13,000 -300 Level New York Center
10:40PM 40.6578 -75.1425 109° East 318 366 12,400 -1,260 Descending New York Center
10:41PM 40.6044 -75.0653 132° Southeast 297 342 10,600 -1,260 Descending New York Center
10:42PM 40.5578 -74.9667 122° Southeast 286 329 10,000 -300 Descending New York Center
10:43PM 40.5258 -74.8664 113° Southeast 286 329 10,000  Level New York Center
10:44PM 40.5000 -74.7833 112° Southeast 307 353 10,000  Level New York TRACON
10:45PM 40.4667 -74.6833 114° Southeast 292 336 10,100  Climbing New York TRACON
10:46PM 40.4500 -74.6000 105° East 294 338 10,100 -600 Level New York TRACON
10:47PM 40.4500 -74.4833 90° East 329 379 8,900 -1,380 Descending New York TRACON
10:48PM 40.4667 -74.3833 78° East 324 373 7,400 -1,020 Descending New York TRACON
10:49PM 40.5000 -74.2833 66° East 294 338 7,000 -840 Descending New York TRACON
10:50PM 40.5167 -74.1833 78° East 277 319 5,800 -1,440 Descending New York TRACON
10:51PM 40.5833 -74.1167 37° Northeast 271 312 4,100 -900 Descending New York TRACON
10:52PM 40.6500 -74.0667 30° Northeast 261 300 4,000  Descending New York TRACON
10:53PM 40.7167 -74.0500 11° North 256 295 4,100  Climbing New York TRACON
10:54PM 40.7833 -74.0000 30° Northeast 267 307 4,000 -360 Descending New York TRACON
10:55PM 40.8500 -73.9500 30° Northeast 255 293 3,400 -480 Descending New York TRACON
10:56PM 40.9000 -73.9000 37° Northeast 227 261 3,100 -240 Descending New York TRACON
10:57PM 40.9333 -73.8500 49° Northeast 232 267 3,000 -300 Descending New York TRACON
10:58PM 40.9167 -73.7667 105° East 218 251 2,500 -480 Descending New York TRACON
10:59PM 40.8667 -73.8000 207° Southwest 166 191 2,000 -600 Descending New York TRACON
11:00PM 40.8500 -73.8167 217° Southwest 129 148 1,400 -660 Descending New York TRACON
11:01PM 40.8167 -73.8500 217° Southwest 125 144 700 -720 Descending New York TRACON